Trempealeau, WI (54661)

04:00 PM CDT die 01o September, anno 2014 (GMT -0500)
Holmen | Change Station
CLOSE
Current Station
Personal Weather Stations
Location: Holmen, WI
Elevation: 705 ft
Nearby Weather Stations

Elev 705 ft 43.96 °N, 91.26 °W | Updated 0 second ago

Partialiter Nubila
Partialiter Nubila
75.2 °F
Feels Like 77 °F
N
11.7
Ventus Variabilis Ventus from Magis Zephyrus quam Auster
Gusts 11.7 mph

Hodie
High -- | Low -- °F
--% Chance of Precip.
Yesterday
High -- | Low -- °F
Precip. -- in
6:29 AM 7:41 PM
Waxing Crescent, 44% visible
Pressio 29.70 in
Visibilitas 10.0 milia passuum
Clouds Serena
Index Caloris 77 °F
Frigus in quo Ros apparet 66 °F
Umor 73%
Rainfall 0.60 in
Snow Depth Not available.
UV 5 out of 12
Pollen 2.90 out of 12
Air Quality Not available.
Flu Activity Not available.
METAR KLSE 012053Z VRB05KT 10SM CLR 26/18 A2972 RMK AO2 SLP055 60003 T02560178 50012

More Conditions Fewer Conditions

Pressio 29.70 in
Visibilitas 10.0 milia passuum
Clouds Serena
Index Caloris 77 °F
Frigus in quo Ros apparet 66 °F
Umor 73%
Rainfall 0.60 in
Snow Depth Not available.
UV 5 out of 12
Pollen 2.90 out of 12
Air Quality Not available.
Flu Activity Not available.
METAR KLSE 012053Z VRB05KT 10SM CLR 26/18 A2972 RMK AO2 SLP055 60003 T02560178 50012

More Conditions Fewer Conditions

10-Day Weather Forecast

Almanac

Astronomy

Sep. 01, 2014 Rise Set
Actual Time 6:29 AM CDT 7:41 PM CDT
Civil Twilight 5:59 AM CDT 8:11 PM CDT
Nautical Twilight 5:23 AM CDT 8:46 PM CDT
Astronomical Twilight 4:45 AM CDT 9:24 PM CDT
Moon 1:29 PM CDT 11:28 PM CDT
Length Of Visible Light 14h 12m
Length of Day
13h 12m
Tomorrow will be 2m 54s shorter.
Waxing Crescent, 44% of the Moon is Illuminated
Hodie
Waxing Crescent
Sep 2
First Quarter
Sep 8
Full
Sep 15
Last Quarter
Sep 24
New

Today's Extremes

State Highs State Lows

Community

WunderPhotos

Upload Photos

1,749,407 photos uploaded!

WunderBlogs® & News

Nearby

Snow Depth

Station Depth Elevation
No new snow has been reported.

Earthquake Activity

City Distance Mag. Time & Date
No recent earthquake activity has been reported nearby.
Minimum magnitude displayed is 2.5.

Coastal Water Temperatures

Locus Calor
No Stations Reporting

Nearby Weather Stations